Terminal Aerodrome Forecast
Issued by NWS

Home | Current Version | Previous Version | Text Only | Print | Product List | Glossary On
Versions: 1 2 3 4 5 6 7 8 9 10 11 12 13 14 15 16 17 18 19 20 21 22 23 24 25 26 27 28 29 30 31 32 33 34 35 36 37 38 39 40 41 42 43 44 45 46 47 48 49 50
000
FTAK31 PANC 032323
TAFACD
TAF
PACD 032323Z 0400/0424 01014G22KT P6SM -RA OVC045
      TEMPO 0400/0403 5SM -RA BR BKN030
     FM040300 01016G24KT 5SM -RA BR BKN025
     FM040700 34015KT 4SM -RA BR BKN015
     FM041200 30010KT 3SM -RA BR OVC008
     FM042000 31013KT P6SM OVC015=

USA.gov is the U.S. government's official web portal to all federal, state and local government web resources and services.